createdAt,value
2017-07-30T00:02:05.200Z,68.10
2017-07-30T00:04:40.194Z,68.10
2017-07-30T00:07:19.823Z,68.10
2017-07-30T00:09:54.647Z,68.20
2017-07-30T00:12:29.471Z,68.10
2017-07-30T00:15:04.444Z,67.90
2017-07-30T00:17:40.260Z,67.80
2017-07-30T00:20:15.208Z,68.10
2017-07-30T00:22:50.001Z,68.40
2017-07-30T00:25:25.112Z,68.50
2017-07-30T00:27:59.926Z,69.10
2017-07-30T00:30:36.884Z,69.70
2017-07-30T00:33:11.686Z,69.50
2017-07-30T00:35:46.648Z,69.50
2017-07-30T00:38:31.428Z,69.60
2017-07-30T00:41:06.293Z,69.40
2017-07-30T00:43:41.207Z,69.20
2017-07-30T00:46:16.141Z,69.10
2017-07-30T00:48:51.058Z,69.20
2017-07-30T00:51:25.997Z,69.60
2017-07-30T00:54:00.830Z,69.90
2017-07-30T00:56:35.869Z,69.70
2017-07-30T00:59:10.652Z,69.50
2017-07-30T01:01:45.442Z,70.00
2017-07-30T01:04:20.372Z,69.90
2017-07-30T01:06:57.285Z,69.80
2017-07-30T01:09:32.179Z,69.80
2017-07-30T01:12:07.112Z,69.80
2017-07-30T01:14:42.022Z,69.50
2017-07-30T01:17:17.124Z,69.20
2017-07-30T01:19:52.040Z,69.20
2017-07-30T01:22:39.459Z,69.10
2017-07-30T01:25:14.260Z,68.80
2017-07-30T01:27:49.188Z,68.70
2017-07-30T01:30:28.662Z,68.70
2017-07-30T01:33:03.588Z,68.60
2017-07-30T01:35:46.907Z,69.10
2017-07-30T01:38:21.866Z,69.40
2017-07-30T01:40:56.951Z,69.80
2017-07-30T01:43:31.789Z,70.30
2017-07-30T01:46:06.723Z,70.60
2017-07-30T01:48:46.296Z,70.70
2017-07-30T01:51:21.196Z,70.80
2017-07-30T01:53:56.127Z,70.70
2017-07-30T01:56:31.032Z,69.90
2017-07-30T01:59:05.952Z,70.10
2017-07-30T02:01:40.811Z,70.00
2017-07-30T02:04:15.657Z,69.70
2017-07-30T02:06:50.551Z,69.50
2017-07-30T02:09:26.463Z,69.20
2017-07-30T02:12:01.378Z,69.40
2017-07-30T02:14:36.165Z,69.20
2017-07-30T02:17:11.092Z,69.60
2017-07-30T02:19:46.823Z,70.00
2017-07-30T02:22:21.736Z,70.00
2017-07-30T02:24:56.676Z,70.10
2017-07-30T02:27:33.524Z,71.10
2017-07-30T02:30:08.456Z,71.20
2017-07-30T02:32:43.399Z,70.80
2017-07-30T02:35:18.328Z,70.30
2017-07-30T02:37:53.258Z,70.10
2017-07-30T02:40:28.176Z,69.90
2017-07-30T02:43:03.085Z,69.80
2017-07-30T02:45:38.011Z,69.70
2017-07-30T02:48:12.803Z,70.70
2017-07-30T02:50:47.729Z,74.60
2017-07-30T02:53:22.623Z,76.00
2017-07-30T02:55:57.572Z,76.50
2017-07-30T02:58:32.517Z,75.70
2017-07-30T03:01:07.424Z,73.00
2017-07-30T03:03:42.328Z,72.20
2017-07-30T03:06:17.156Z,72.00
2017-07-30T03:08:52.072Z,71.90
2017-07-30T03:11:26.994Z,71.10
2017-07-30T03:14:01.911Z,70.90
2017-07-30T03:16:36.848Z,71.10
2017-07-30T03:19:11.644Z,71.20
2017-07-30T03:21:46.680Z,71.50
2017-07-30T03:24:21.604Z,71.60
2017-07-30T03:27:02.890Z,71.60
2017-07-30T03:29:37.827Z,71.70
2017-07-30T03:32:12.799Z,71.30
2017-07-30T03:34:47.693Z,70.60
2017-07-30T03:37:22.643Z,70.40
2017-07-30T03:39:57.580Z,70.30
2017-07-30T03:42:32.504Z,70.40
2017-07-30T03:45:07.448Z,70.10
2017-07-30T03:47:42.253Z,69.80
2017-07-30T03:50:17.177Z,69.90
2017-07-30T03:52:52.103Z,69.90
2017-07-30T03:55:27.014Z,69.80
2017-07-30T03:58:01.963Z,69.90
2017-07-30T04:00:36.908Z,70.10
2017-07-30T04:03:11.904Z,69.90
2017-07-30T04:05:46.812Z,70.00
2017-07-30T04:08:21.639Z,69.80
2017-07-30T04:10:56.531Z,69.40
2017-07-30T04:13:31.459Z,69.70
2017-07-30T04:16:06.419Z,69.80
2017-07-30T04:18:41.366Z,69.70
2017-07-30T04:21:16.152Z,68.80
2017-07-30T04:23:53.072Z,68.90
2017-07-30T04:26:27.986Z,69.40
2017-07-30T04:29:02.938Z,69.50
2017-07-30T04:31:37.837Z,69.80
2017-07-30T04:34:12.800Z,69.70
2017-07-30T04:36:47.709Z,69.20
2017-07-30T04:39:22.648Z,69.10
2017-07-30T04:41:57.544Z,68.70
2017-07-30T04:44:32.483Z,68.70
2017-07-30T04:47:07.271Z,68.70
2017-07-30T04:49:42.184Z,68.50
2017-07-30T04:52:17.096Z,68.20
2017-07-30T04:54:52.032Z,68.10
2017-07-30T04:57:26.968Z,68.50
2017-07-30T05:00:01.883Z,68.30
2017-07-30T05:02:36.787Z,68.10
2017-07-30T05:05:23.400Z,68.00
2017-07-30T05:07:58.316Z,67.70
2017-07-30T05:10:33.233Z,67.30
2017-07-30T05:13:08.170Z,67.60
2017-07-30T05:15:43.104Z,67.70
2017-07-30T05:18:18.013Z,68.00
2017-07-30T05:20:52.813Z,68.20
2017-07-30T05:23:27.751Z,68.70
2017-07-30T05:26:02.691Z,68.80
2017-07-30T05:28:37.470Z,68.90
2017-07-30T05:31:12.389Z,68.60
2017-07-30T05:33:47.328Z,69.00
2017-07-30T05:36:22.259Z,69.20
2017-07-30T05:38:57.169Z,69.40
2017-07-30T05:41:32.105Z,69.20
2017-07-30T05:44:07.020Z,69.00
2017-07-30T05:46:41.800Z,68.50
2017-07-30T05:49:16.708Z,68.40
2017-07-30T05:51:51.684Z,68.80
2017-07-30T05:54:26.604Z,69.10
2017-07-30T05:57:01.516Z,69.80
2017-07-30T05:59:36.411Z,70.00
2017-07-30T06:02:11.360Z,70.00
2017-07-30T06:04:46.150Z,70.00
2017-07-30T06:07:21.072Z,69.60
2017-07-30T06:09:55.872Z,68.50
2017-07-30T06:12:30.804Z,68.30
2017-07-30T06:15:05.788Z,68.10
2017-07-30T06:17:40.598Z,67.40
2017-07-30T06:20:15.388Z,66.80
2017-07-30T06:22:50.317Z,66.10
2017-07-30T06:25:25.228Z,66.00
2017-07-30T06:28:00.025Z,65.00
2017-07-30T06:30:34.807Z,64.10
2017-07-30T06:33:09.592Z,63.10
2017-07-30T06:35:44.416Z,62.30
2017-07-30T06:38:19.215Z,62.10
2017-07-30T06:40:53.991Z,61.90
2017-07-30T06:43:28.799Z,61.40
2017-07-30T06:46:03.576Z,61.10
2017-07-30T06:48:38.507Z,60.40
2017-07-30T06:51:13.315Z,60.00
2017-07-30T06:53:48.120Z,59.70
2017-07-30T06:56:23.016Z,58.90
2017-07-30T06:58:57.819Z,58.90
2017-07-30T07:01:32.715Z,58.60
2017-07-30T07:04:07.508Z,58.50
2017-07-30T07:06:42.404Z,59.40
2017-07-30T07:09:17.200Z,59.50
2017-07-30T07:11:52.108Z,58.80
2017-07-30T07:14:27.016Z,58.30
2017-07-30T07:17:01.945Z,58.60
2017-07-30T07:19:36.895Z,58.50
2017-07-30T07:22:12.010Z,57.90
2017-07-30T07:24:52.689Z,57.80
2017-07-30T07:27:27.605Z,57.40
2017-07-30T07:30:02.376Z,56.30
2017-07-30T07:32:37.274Z,56.10
2017-07-30T07:35:13.167Z,56.90
2017-07-30T07:37:48.118Z,55.10
2017-07-30T07:40:23.013Z,54.70
2017-07-30T07:42:57.908Z,53.60
2017-07-30T07:45:32.688Z,52.90
2017-07-30T07:48:08.539Z,52.60
2017-07-30T07:50:43.444Z,52.50
2017-07-30T07:53:18.220Z,52.00
2017-07-30T07:55:53.008Z,51.80
2017-07-30T07:58:30.384Z,52.10
2017-07-30T08:01:05.155Z,51.50
2017-07-30T08:03:40.744Z,51.50
2017-07-30T08:06:15.514Z,51.10
2017-07-30T08:08:50.298Z,51.30
2017-07-30T08:11:25.203Z,50.80
2017-07-30T08:14:00.091Z,50.00
2017-07-30T08:16:35.156Z,50.00
2017-07-30T08:19:10.033Z,48.10
2017-07-30T08:21:44.931Z,47.50
2017-07-30T08:24:19.685Z,45.70
2017-07-30T08:26:54.459Z,46.60
2017-07-30T08:29:29.251Z,46.90
2017-07-30T08:32:04.464Z,47.40
2017-07-30T08:34:39.236Z,46.70
2017-07-30T08:37:14.019Z,45.30
2017-07-30T08:39:48.916Z,46.60
2017-07-30T08:42:23.682Z,45.20
2017-07-30T08:44:58.457Z,45.10
2017-07-30T08:47:33.261Z,45.70
2017-07-30T08:50:08.146Z,42.70
2017-07-30T08:52:42.966Z,42.80
2017-07-30T08:55:17.759Z,42.60
2017-07-30T08:57:52.522Z,42.10
2017-07-30T09:00:27.442Z,42.70
2017-07-30T09:03:02.224Z,39.80
2017-07-30T09:05:37.007Z,36.70
2017-07-30T09:08:11.911Z,37.20
2017-07-30T09:10:46.670Z,35.90
2017-07-30T09:13:21.650Z,35.80
2017-07-30T09:15:56.873Z,36.00
2017-07-30T09:18:31.819Z,35.00
2017-07-30T09:21:06.857Z,36.40
2017-07-30T09:23:41.964Z,36.50
2017-07-30T09:26:16.740Z,36.80
2017-07-30T09:28:51.659Z,34.90
2017-07-30T09:31:26.419Z,36.70
2017-07-30T09:34:01.238Z,36.90
2017-07-30T09:36:36.012Z,34.50
2017-07-30T09:39:11.106Z,35.00
2017-07-30T09:41:46.006Z,35.00
2017-07-30T09:44:20.923Z,34.90
2017-07-30T09:46:55.826Z,36.10
2017-07-30T09:49:30.795Z,34.50
2017-07-30T09:52:05.820Z,35.30
2017-07-30T09:54:40.723Z,35.10
2017-07-30T09:57:15.611Z,34.80
2017-07-30T09:59:50.534Z,33.60
2017-07-30T10:02:25.300Z,33.80
2017-07-30T10:05:00.116Z,34.00
2017-07-30T10:07:35.034Z,33.70
2017-07-30T10:10:09.826Z,33.80
2017-07-30T10:12:44.776Z,35.30
2017-07-30T10:15:19.646Z,35.00
2017-07-30T10:17:54.410Z,35.30
2017-07-30T10:20:29.189Z,34.70
2017-07-30T10:23:03.959Z,35.50
2017-07-30T10:25:38.890Z,35.40
2017-07-30T10:28:13.787Z,35.80
2017-07-30T10:30:48.704Z,36.00
2017-07-30T10:33:23.493Z,35.30
2017-07-30T10:35:58.273Z,35.80
2017-07-30T10:38:33.029Z,34.50
2017-07-30T10:41:07.935Z,33.70
2017-07-30T10:43:42.832Z,33.20
2017-07-30T10:46:17.609Z,33.90
2017-07-30T10:48:52.393Z,33.00
2017-07-30T10:51:27.180Z,33.50
2017-07-30T10:54:02.084Z,33.60
2017-07-30T10:56:36.865Z,33.70
2017-07-30T10:59:11.755Z,33.30
2017-07-30T11:01:46.676Z,31.80
2017-07-30T11:04:22.496Z,32.60
2017-07-30T11:06:57.274Z,32.40
2017-07-30T11:09:32.043Z,31.00
2017-07-30T11:12:06.973Z,30.30
2017-07-30T11:14:41.860Z,30.70
2017-07-30T11:17:17.871Z,30.30
2017-07-30T11:19:52.615Z,32.10
2017-07-30T11:22:27.593Z,31.60
2017-07-30T11:25:05.853Z,31.20
2017-07-30T11:27:48.763Z,31.50
2017-07-30T11:30:23.755Z,32.20
2017-07-30T11:32:59.375Z,30.40
2017-07-30T11:35:38.613Z,29.40
2017-07-30T11:38:20.130Z,29.50
2017-07-30T11:40:56.101Z,29.50
2017-07-30T11:43:31.229Z,30.10
2017-07-30T11:46:06.152Z,29.00
2017-07-30T11:48:41.097Z,28.80
2017-07-30T11:51:18.184Z,27.80
2017-07-30T11:53:55.077Z,27.70
2017-07-30T11:56:30.039Z,28.20
2017-07-30T11:59:04.819Z,28.90
2017-07-30T12:01:39.802Z,30.10
2017-07-30T12:04:14.850Z,28.70
2017-07-30T12:06:49.832Z,28.40
2017-07-30T12:09:24.599Z,28.70
2017-07-30T12:11:59.514Z,29.60
2017-07-30T12:14:34.288Z,30.20
2017-07-30T12:17:09.180Z,30.30
2017-07-30T12:19:44.088Z,29.90
2017-07-30T12:22:18.980Z,29.20
2017-07-30T12:24:53.951Z,29.50
2017-07-30T12:27:29.173Z,28.80
2017-07-30T12:30:04.909Z,27.30
2017-07-30T12:32:40.844Z,27.90
2017-07-30T12:35:15.764Z,27.50
2017-07-30T12:37:50.649Z,27.40
2017-07-30T12:40:25.556Z,26.70
2017-07-30T12:43:00.733Z,28.00
2017-07-30T12:45:36.039Z,28.40
2017-07-30T12:48:10.823Z,27.80
2017-07-30T12:54:06.249Z,25.40
2017-07-30T12:56:47.180Z,25.00
2017-07-30T12:59:21.988Z,25.50
2017-07-30T13:02:02.573Z,25.10
2017-07-30T13:04:44.096Z,25.20
2017-07-30T13:07:28.118Z,25.20
2017-07-30T13:10:04.936Z,24.70
2017-07-30T13:12:41.775Z,23.40
2017-07-30T13:15:29.654Z,24.30
2017-07-30T13:18:05.646Z,25.90
2017-07-30T13:20:49.398Z,27.10
2017-07-30T13:23:29.036Z,29.10
2017-07-30T13:26:08.959Z,29.90
2017-07-30T13:28:47.722Z,31.10
2017-07-30T13:31:24.667Z,32.60
2017-07-30T13:34:05.180Z,34.70
2017-07-30T13:36:48.712Z,43.00
2017-07-30T13:45:12.855Z,53.90
2017-07-30T13:48:07.256Z,59.60
2017-07-30T13:51:14.839Z,62.30
2017-07-30T13:53:54.073Z,67.10
2017-07-30T13:56:51.155Z,69.40
2017-07-30T13:59:36.295Z,72.30
2017-07-30T14:02:22.054Z,73.80
2017-07-30T14:05:06.023Z,73.80
2017-07-30T14:07:48.309Z,74.90
2017-07-30T14:10:43.383Z,75.90
2017-07-30T14:13:43.995Z,74.90
2017-07-30T14:16:24.835Z,75.90
2017-07-30T14:19:08.574Z,76.50
2017-07-30T14:21:50.263Z,76.30
2017-07-30T14:24:43.900Z,75.90
2017-07-30T14:30:32.609Z,75.40
2017-07-30T14:33:10.105Z,76.50
2017-07-30T14:35:45.298Z,73.90
2017-07-30T14:38:32.404Z,70.40
2017-07-30T14:41:12.049Z,65.90
2017-07-30T14:43:52.172Z,58.80
2017-07-30T14:46:36.753Z,57.00
2017-07-30T14:49:15.031Z,55.00
2017-07-30T14:51:59.371Z,52.50
2017-07-30T14:54:42.364Z,50.40
2017-07-30T14:57:18.470Z,53.00
2017-07-30T14:59:55.354Z,53.00
2017-07-30T15:02:41.920Z,49.70
2017-07-30T15:05:18.008Z,50.00
2017-07-30T15:07:53.123Z,49.80
2017-07-30T15:10:33.796Z,50.00
2017-07-30T15:13:09.049Z,50.90
2017-07-30T15:15:44.095Z,51.90
2017-07-30T15:18:19.133Z,51.40
2017-07-30T15:20:54.284Z,50.50
2017-07-30T15:23:30.470Z,49.80
2017-07-30T15:32:12.952Z,50.70
2017-07-30T15:37:56.382Z,53.10
2017-07-30T15:40:34.011Z,53.20
2017-07-30T15:43:11.975Z,53.50
2017-07-30T15:45:53.706Z,53.20
2017-07-30T15:48:35.800Z,54.40
2017-07-30T15:51:24.351Z,53.70
2017-07-30T15:54:09.380Z,54.00
2017-07-30T15:56:48.515Z,55.50
2017-07-30T15:59:25.392Z,54.40
2017-07-30T16:02:07.209Z,54.50
2017-07-30T16:04:45.247Z,54.50
2017-07-30T16:07:27.532Z,55.40
2017-07-30T16:10:11.169Z,55.20
2017-07-30T16:12:48.075Z,56.50
2017-07-30T16:15:27.402Z,55.70
2017-07-30T16:18:08.369Z,56.40
2017-07-30T16:20:49.108Z,53.50
2017-07-30T16:23:28.857Z,53.20
2017-07-30T16:26:07.579Z,53.20
2017-07-30T16:28:44.606Z,54.60
2017-07-30T16:31:31.392Z,54.00
2017-07-30T16:34:15.191Z,53.60
2017-07-30T16:36:57.175Z,53.20
2017-07-30T16:39:35.059Z,54.50
2017-07-30T16:42:15.591Z,56.10
2017-07-30T16:44:54.608Z,57.70
2017-07-30T16:47:33.150Z,57.70
2017-07-30T16:50:09.430Z,58.50
2017-07-30T16:52:48.095Z,57.70
2017-07-30T16:55:29.201Z,57.90
2017-07-30T16:58:08.056Z,55.70
2017-07-30T17:00:44.596Z,55.10
2017-07-30T17:03:32.195Z,55.20
2017-07-30T17:06:17.604Z,55.60
2017-07-30T17:09:01.036Z,54.70
2017-07-30T17:11:39.537Z,55.90
2017-07-30T17:14:17.727Z,57.10
2017-07-30T17:16:53.360Z,57.90
2017-07-30T17:19:28.836Z,58.70
2017-07-30T17:22:08.632Z,59.60
2017-07-30T17:24:47.581Z,59.90
2017-07-30T17:27:38.812Z,59.80
2017-07-30T17:30:23.390Z,60.30
2017-07-30T17:33:18.822Z,60.60
2017-07-30T17:36:00.562Z,61.00
2017-07-30T17:38:50.913Z,60.40
2017-07-30T17:41:31.100Z,61.70
2017-07-30T17:44:27.964Z,62.30
2017-07-30T17:47:31.324Z,62.70
2017-07-30T17:50:19.567Z,62.10
2017-07-30T17:53:06.816Z,62.70
2017-07-30T17:55:45.480Z,62.50
2017-07-30T17:58:27.541Z,62.30
2017-07-30T18:01:06.601Z,62.60
2017-07-30T18:03:49.080Z,63.30
2017-07-30T18:06:27.799Z,64.10
2017-07-30T18:21:30.566Z,68.00
2017-07-30T18:24:06.504Z,69.00
2017-07-30T18:26:41.759Z,70.10
2017-07-30T18:29:28.055Z,70.30
2017-07-30T18:32:05.447Z,70.10
2017-07-30T18:34:41.809Z,69.90
2017-07-30T18:37:26.673Z,69.80
2017-07-30T18:40:06.732Z,69.90
2017-07-30T18:42:43.706Z,70.20
2017-07-30T18:45:34.342Z,70.50
2017-07-30T18:48:14.049Z,71.30
2017-07-30T18:50:54.513Z,71.50
2017-07-30T18:53:33.231Z,71.50
2017-07-30T18:56:11.748Z,71.50
2017-07-30T18:58:54.666Z,71.80
2017-07-30T19:01:35.346Z,72.40
2017-07-30T19:04:13.234Z,73.10
2017-07-30T19:06:52.570Z,73.80
2017-07-30T19:09:28.567Z,73.60
2017-07-30T19:12:07.247Z,74.10
2017-07-30T19:14:55.624Z,74.50
2017-07-30T19:17:38.875Z,75.40
2017-07-30T19:20:21.237Z,75.80
2017-07-30T19:22:59.127Z,75.90
2017-07-30T19:25:41.609Z,76.00
2017-07-30T19:28:21.608Z,76.10
2017-07-30T19:31:01.169Z,76.40
2017-07-30T19:33:38.822Z,76.60
2017-07-30T19:36:22.076Z,76.90
2017-07-30T19:39:01.048Z,76.20
2017-07-30T19:41:41.332Z,76.60
2017-07-30T19:44:21.078Z,78.80
2017-07-30T19:46:59.562Z,79.20
2017-07-30T19:49:39.849Z,79.10
2017-07-30T19:52:24.198Z,80.00
2017-07-30T19:55:06.716Z,79.40
2017-07-30T19:57:44.935Z,78.90
2017-07-30T20:00:26.475Z,77.90
2017-07-30T20:03:08.916Z,76.10
2017-07-30T20:05:51.819Z,74.80
2017-07-30T20:08:33.417Z,74.80
2017-07-30T20:11:17.366Z,74.80
2017-07-30T20:16:47.977Z,73.40
2017-07-30T20:19:36.671Z,74.00
2017-07-30T20:22:22.046Z,74.50
2017-07-30T20:25:02.223Z,74.80
2017-07-30T20:27:42.948Z,75.10
2017-07-30T20:30:23.430Z,75.60
2017-07-30T20:33:07.470Z,75.70
2017-07-30T20:35:45.992Z,75.70
2017-07-30T20:38:28.222Z,75.80
2017-07-30T20:41:13.162Z,76.10
2017-07-30T20:44:03.176Z,76.70
2017-07-30T20:46:41.354Z,77.70
2017-07-30T20:49:26.834Z,77.50
2017-07-30T20:52:08.422Z,77.30
2017-07-30T20:54:51.034Z,77.50
2017-07-30T20:57:35.182Z,77.60
2017-07-30T21:00:14.926Z,77.80
2017-07-30T21:02:56.610Z,77.90
2017-07-30T21:08:46.008Z,78.00
2017-07-30T21:11:38.552Z,78.10
2017-07-30T21:14:26.187Z,78.20
2017-07-30T21:17:29.703Z,78.10
2017-07-30T21:20:23.364Z,78.20
2017-07-30T21:28:42.173Z,77.90
2017-07-30T21:31:28.583Z,77.50
2017-07-30T21:34:22.964Z,76.90
2017-07-30T21:37:13.484Z,76.10
2017-07-30T21:39:54.434Z,77.10
2017-07-30T21:42:37.834Z,76.60
2017-07-30T21:45:21.574Z,76.80
2017-07-30T21:47:58.044Z,77.00
2017-07-30T21:50:42.805Z,77.50
2017-07-30T21:53:25.881Z,77.80
2017-07-30T21:56:17.759Z,77.60
2017-07-30T21:58:55.703Z,77.20
2017-07-30T22:01:30.613Z,77.40
2017-07-30T22:04:05.515Z,76.60
2017-07-30T22:06:40.480Z,76.30
2017-07-30T22:09:17.268Z,75.80
2017-07-30T22:11:52.196Z,75.60
2017-07-30T22:14:30.504Z,76.30
2017-07-30T22:17:06.780Z,76.90
2017-07-30T22:19:41.668Z,77.30
2017-07-30T22:22:16.626Z,78.00
2017-07-30T22:24:51.419Z,78.60
2017-07-30T22:27:27.437Z,79.10
2017-07-30T22:30:02.332Z,79.00
2017-07-30T22:32:38.252Z,78.90
2017-07-30T22:35:13.148Z,78.80
2017-07-30T22:37:48.079Z,78.60
2017-07-30T22:40:24.024Z,78.30
2017-07-30T22:42:59.084Z,77.90
2017-07-30T22:45:33.904Z,77.70
2017-07-30T22:48:08.980Z,78.10
2017-07-30T22:50:43.743Z,77.70
2017-07-30T22:53:18.525Z,78.00
2017-07-30T22:55:53.423Z,77.20
2017-07-30T22:58:28.303Z,77.00
2017-07-30T23:01:03.064Z,77.90
2017-07-30T23:03:37.851Z,79.00
2017-07-30T23:06:12.698Z,79.10
2017-07-30T23:08:47.653Z,79.10
2017-07-30T23:11:24.444Z,78.70
2017-07-30T23:13:59.360Z,78.10
2017-07-30T23:16:35.124Z,78.30
2017-07-30T23:19:10.044Z,78.60
2017-07-30T23:21:45.260Z,79.00
2017-07-30T23:24:22.087Z,78.70
2017-07-30T23:26:56.986Z,78.50
2017-07-30T23:29:31.956Z,78.40
2017-07-30T23:32:06.796Z,77.60
2017-07-30T23:34:41.640Z,76.90
2017-07-30T23:37:16.519Z,76.80
2017-07-30T23:39:51.432Z,77.10
2017-07-30T23:42:26.331Z,77.40
2017-07-30T23:45:01.122Z,77.80
2017-07-30T23:47:36.018Z,77.70
2017-07-30T23:50:10.947Z,78.00
2017-07-30T23:52:45.836Z,78.00
2017-07-30T23:55:20.737Z,78.40
2017-07-30T23:57:55.808Z,78.40
